sensor_id;sensor_type;location;lat;lon;timestamp;temperature;humidity
8475;DHT22;4274;52.012;8.448;2024-02-04T00:00:04;8.10;99.90
8475;DHT22;4274;52.012;8.448;2024-02-04T00:02:30;8.00;99.90
8475;DHT22;4274;52.012;8.448;2024-02-04T00:04:56;8.00;99.90
8475;DHT22;4274;52.012;8.448;2024-02-04T00:07:22;7.90;99.90
8475;DHT22;4274;52.012;8.448;2024-02-04T00:09:47;7.80;99.90
8475;DHT22;4274;52.012;8.448;2024-02-04T00:12:13;7.90;99.90
8475;DHT22;4274;52.012;8.448;2024-02-04T00:14:38;7.90;99.90
8475;DHT22;4274;52.012;8.448;2024-02-04T00:17:04;7.90;99.90
8475;DHT22;4274;52.012;8.448;2024-02-04T00:19:30;7.90;99.90
8475;DHT22;4274;52.012;8.448;2024-02-04T00:21:55;7.90;99.90
8475;DHT22;4274;52.012;8.448;2024-02-04T00:24:21;7.90;99.90
8475;DHT22;4274;52.012;8.448;2024-02-04T00:26:47;7.90;99.90
8475;DHT22;4274;52.012;8.448;2024-02-04T00:29:13;7.90;99.90
8475;DHT22;4274;52.012;8.448;2024-02-04T00:31:39;7.90;99.90
8475;DHT22;4274;52.012;8.448;2024-02-04T00:34:05;7.90;99.90
8475;DHT22;4274;52.012;8.448;2024-02-04T00:36:30;7.90;99.90
8475;DHT22;4274;52.012;8.448;2024-02-04T00:38:56;8.00;99.90
8475;DHT22;4274;52.012;8.448;2024-02-04T00:41:22;7.90;99.90
8475;DHT22;4274;52.012;8.448;2024-02-04T00:43:48;7.90;99.90
8475;DHT22;4274;52.012;8.448;2024-02-04T00:46:13;8.00;99.90
8475;DHT22;4274;52.012;8.448;2024-02-04T00:48:39;7.90;99.90
8475;DHT22;4274;52.012;8.448;2024-02-04T00:51:07;7.90;99.90
8475;DHT22;4274;52.012;8.448;2024-02-04T00:53:33;8.00;99.90
8475;DHT22;4274;52.012;8.448;2024-02-04T00:56:03;7.90;99.90
8475;DHT22;4274;52.012;8.448;2024-02-04T00:58:30;8.00;99.90
8475;DHT22;4274;52.012;8.448;2024-02-04T01:00:56;8.00;99.90
8475;DHT22;4274;52.012;8.448;2024-02-04T01:03:21;8.10;99.90
8475;DHT22;4274;52.012;8.448;2024-02-04T01:05:47;8.10;99.90
8475;DHT22;4274;52.012;8.448;2024-02-04T01:08:12;8.10;99.90
8475;DHT22;4274;52.012;8.448;2024-02-04T01:10:38;8.10;99.90
8475;DHT22;4274;52.012;8.448;2024-02-04T01:13:04;8.10;99.90
8475;DHT22;4274;52.012;8.448;2024-02-04T01:15:29;8.10;99.90
8475;DHT22;4274;52.012;8.448;2024-02-04T01:17:55;8.10;99.90
8475;DHT22;4274;52.012;8.448;2024-02-04T01:20:20;8.10;99.90
8475;DHT22;4274;52.012;8.448;2024-02-04T01:22:46;8.20;99.90
8475;DHT22;4274;52.012;8.448;2024-02-04T01:25:12;8.20;99.90
8475;DHT22;4274;52.012;8.448;2024-02-04T01:27:38;8.20;99.90
8475;DHT22;4274;52.012;8.448;2024-02-04T01:30:04;8.20;99.90
8475;DHT22;4274;52.012;8.448;2024-02-04T01:32:29;8.20;99.90
8475;DHT22;4274;52.012;8.448;2024-02-04T01:34:55;8.30;99.90
8475;DHT22;4274;52.012;8.448;2024-02-04T01:37:20;8.30;99.90
8475;DHT22;4274;52.012;8.448;2024-02-04T01:39:46;8.20;99.90
8475;DHT22;4274;52.012;8.448;2024-02-04T01:42:11;8.30;99.90
8475;DHT22;4274;52.012;8.448;2024-02-04T01:44:37;8.30;99.90
8475;DHT22;4274;52.012;8.448;2024-02-04T01:47:03;8.30;99.90
8475;DHT22;4274;52.012;8.448;2024-02-04T01:49:28;8.30;99.90
8475;DHT22;4274;52.012;8.448;2024-02-04T01:51:55;8.40;99.90
8475;DHT22;4274;52.012;8.448;2024-02-04T01:54:22;8.40;99.90
8475;DHT22;4274;52.012;8.448;2024-02-04T01:56:49;8.50;99.90
8475;DHT22;4274;52.012;8.448;2024-02-04T01:59:16;8.50;99.90
8475;DHT22;4274;52.012;8.448;2024-02-04T02:01:43;8.60;99.90
8475;DHT22;4274;52.012;8.448;2024-02-04T02:04:08;8.70;99.90
8475;DHT22;4274;52.012;8.448;2024-02-04T02:06:34;8.80;99.90
8475;DHT22;4274;52.012;8.448;2024-02-04T02:09:07;8.80;99.90
8475;DHT22;4274;52.012;8.448;2024-02-04T02:11:40;8.90;99.90
8475;DHT22;4274;52.012;8.448;2024-02-04T02:14:11;8.90;99.90
8475;DHT22;4274;52.012;8.448;2024-02-04T02:16:37;8.90;99.90
8475;DHT22;4274;52.012;8.448;2024-02-04T02:22:36;9.10;99.90
8475;DHT22;4274;52.012;8.448;2024-02-04T02:25:03;9.10;99.90
8475;DHT22;4274;52.012;8.448;2024-02-04T02:27:30;9.10;99.90
8475;DHT22;4274;52.012;8.448;2024-02-04T02:29:56;9.10;99.90
8475;DHT22;4274;52.012;8.448;2024-02-04T02:32:22;9.10;99.90
8475;DHT22;4274;52.012;8.448;2024-02-04T02:34:48;9.00;99.90
8475;DHT22;4274;52.012;8.448;2024-02-04T02:39:49;9.00;99.90
8475;DHT22;4274;52.012;8.448;2024-02-04T02:42:18;9.10;99.90
8475;DHT22;4274;52.012;8.448;2024-02-04T02:44:46;9.10;99.90
8475;DHT22;4274;52.012;8.448;2024-02-04T02:47:13;9.10;99.90
8475;DHT22;4274;52.012;8.448;2024-02-04T02:49:39;9.10;99.90
8475;DHT22;4274;52.012;8.448;2024-02-04T02:52:05;9.10;99.90
8475;DHT22;4274;52.012;8.448;2024-02-04T02:54:31;9.10;99.90
8475;DHT22;4274;52.012;8.448;2024-02-04T02:56:56;9.10;99.90
8475;DHT22;4274;52.012;8.448;2024-02-04T02:59:22;9.00;99.90
8475;DHT22;4274;52.012;8.448;2024-02-04T03:01:47;9.00;99.90
8475;DHT22;4274;52.012;8.448;2024-02-04T03:04:13;9.00;99.90
8475;DHT22;4274;52.012;8.448;2024-02-04T03:06:39;8.90;99.90
8475;DHT22;4274;52.012;8.448;2024-02-04T03:09:04;8.90;99.90
8475;DHT22;4274;52.012;8.448;2024-02-04T03:11:30;8.80;99.90
8475;DHT22;4274;52.012;8.448;2024-02-04T03:13:55;8.80;99.90
8475;DHT22;4274;52.012;8.448;2024-02-04T03:16:21;8.70;99.90
8475;DHT22;4274;52.012;8.448;2024-02-04T03:18:46;8.70;99.90
8475;DHT22;4274;52.012;8.448;2024-02-04T03:21:16;8.60;99.90
8475;DHT22;4274;52.012;8.448;2024-02-04T03:23:42;8.60;99.90
8475;DHT22;4274;52.012;8.448;2024-02-04T03:26:09;8.60;99.90
8475;DHT22;4274;52.012;8.448;2024-02-04T03:28:35;8.60;99.90
8475;DHT22;4274;52.012;8.448;2024-02-04T03:31:00;8.60;99.90
8475;DHT22;4274;52.012;8.448;2024-02-04T03:33:26;8.50;99.90
8475;DHT22;4274;52.012;8.448;2024-02-04T03:35:51;8.60;99.90
8475;DHT22;4274;52.012;8.448;2024-02-04T03:38:17;8.50;99.90
8475;DHT22;4274;52.012;8.448;2024-02-04T03:40:42;8.60;99.90
8475;DHT22;4274;52.012;8.448;2024-02-04T03:43:09;8.50;99.90
8475;DHT22;4274;52.012;8.448;2024-02-04T03:45:35;8.50;99.90
8475;DHT22;4274;52.012;8.448;2024-02-04T03:48:01;8.60;99.90
8475;DHT22;4274;52.012;8.448;2024-02-04T03:50:27;8.60;99.90
8475;DHT22;4274;52.012;8.448;2024-02-04T03:52:52;8.60;99.90
8475;DHT22;4274;52.012;8.448;2024-02-04T03:55:18;8.60;99.90
8475;DHT22;4274;52.012;8.448;2024-02-04T03:57:44;8.60;99.90
8475;DHT22;4274;52.012;8.448;2024-02-04T04:00:10;8.60;99.90
8475;DHT22;4274;52.012;8.448;2024-02-04T04:02:36;8.60;99.90
8475;DHT22;4274;52.012;8.448;2024-02-04T04:05:02;8.60;99.90
8475;DHT22;4274;52.012;8.448;2024-02-04T04:07:28;8.60;99.90
8475;DHT22;4274;52.012;8.448;2024-02-04T04:09:53;8.60;99.90
8475;DHT22;4274;52.012;8.448;2024-02-04T04:12:19;8.70;99.90
8475;DHT22;4274;52.012;8.448;2024-02-04T04:14:44;8.60;99.90
8475;DHT22;4274;52.012;8.448;2024-02-04T04:17:10;8.60;99.90
8475;DHT22;4274;52.012;8.448;2024-02-04T04:19:36;8.70;99.90
8475;DHT22;4274;52.012;8.448;2024-02-04T04:22:02;8.60;99.90
8475;DHT22;4274;52.012;8.448;2024-02-04T04:24:28;8.60;99.90
8475;DHT22;4274;52.012;8.448;2024-02-04T04:26:54;8.60;99.90
8475;DHT22;4274;52.012;8.448;2024-02-04T04:29:21;8.60;99.90
8475;DHT22;4274;52.012;8.448;2024-02-04T04:31:46;8.50;99.90
8475;DHT22;4274;52.012;8.448;2024-02-04T04:34:12;8.50;99.90
8475;DHT22;4274;52.012;8.448;2024-02-04T04:36:37;8.50;99.90
8475;DHT22;4274;52.012;8.448;2024-02-04T04:39:03;8.50;99.90
8475;DHT22;4274;52.012;8.448;2024-02-04T04:41:29;8.50;99.90
8475;DHT22;4274;52.012;8.448;2024-02-04T04:43:54;8.50;99.90
8475;DHT22;4274;52.012;8.448;2024-02-04T04:46:20;8.50;99.90
8475;DHT22;4274;52.012;8.448;2024-02-04T04:48:46;8.50;99.90
8475;DHT22;4274;52.012;8.448;2024-02-04T04:51:11;8.50;99.90
8475;DHT22;4274;52.012;8.448;2024-02-04T04:53:37;8.40;99.90
8475;DHT22;4274;52.012;8.448;2024-02-04T04:56:04;8.40;99.90
8475;DHT22;4274;52.012;8.448;2024-02-04T04:58:29;8.50;99.90
8475;DHT22;4274;52.012;8.448;2024-02-04T05:00:55;8.50;99.90
8475;DHT22;4274;52.012;8.448;2024-02-04T05:03:21;8.50;99.90
8475;DHT22;4274;52.012;8.448;2024-02-04T05:05:46;8.50;99.90
8475;DHT22;4274;52.012;8.448;2024-02-04T05:08:14;8.50;99.90
8475;DHT22;4274;52.012;8.448;2024-02-04T05:10:39;8.50;99.90
8475;DHT22;4274;52.012;8.448;2024-02-04T05:13:05;8.50;99.90
8475;DHT22;4274;52.012;8.448;2024-02-04T05:15:30;8.50;99.90
8475;DHT22;4274;52.012;8.448;2024-02-04T05:17:56;8.50;99.90
8475;DHT22;4274;52.012;8.448;2024-02-04T05:20:21;8.50;99.90
8475;DHT22;4274;52.012;8.448;2024-02-04T05:22:47;8.50;99.90
8475;DHT22;4274;52.012;8.448;2024-02-04T05:25:13;8.50;99.90
8475;DHT22;4274;52.012;8.448;2024-02-04T05:27:39;8.50;99.90
8475;DHT22;4274;52.012;8.448;2024-02-04T05:30:05;8.50;99.90
8475;DHT22;4274;52.012;8.448;2024-02-04T05:32:31;8.60;99.90
8475;DHT22;4274;52.012;8.448;2024-02-04T05:34:56;8.50;99.90
8475;DHT22;4274;52.012;8.448;2024-02-04T05:37:22;8.60;99.90
8475;DHT22;4274;52.012;8.448;2024-02-04T05:39:48;8.60;99.90
8475;DHT22;4274;52.012;8.448;2024-02-04T05:42:13;8.60;99.90
8475;DHT22;4274;52.012;8.448;2024-02-04T05:44:39;8.60;99.90
8475;DHT22;4274;52.012;8.448;2024-02-04T05:47:04;8.60;99.90
8475;DHT22;4274;52.012;8.448;2024-02-04T05:49:30;8.50;99.90
8475;DHT22;4274;52.012;8.448;2024-02-04T05:51:55;8.50;99.90
8475;DHT22;4274;52.012;8.448;2024-02-04T05:54:21;8.60;99.90
8475;DHT22;4274;52.012;8.448;2024-02-04T05:56:47;8.50;99.90
8475;DHT22;4274;52.012;8.448;2024-02-04T05:59:12;8.50;99.90
8475;DHT22;4274;52.012;8.448;2024-02-04T06:01:38;8.50;99.90
8475;DHT22;4274;52.012;8.448;2024-02-04T06:04:03;8.50;99.90
8475;DHT22;4274;52.012;8.448;2024-02-04T06:06:29;8.50;99.90
8475;DHT22;4274;52.012;8.448;2024-02-04T06:08:54;8.50;99.90
8475;DHT22;4274;52.012;8.448;2024-02-04T06:11:20;8.50;99.90
8475;DHT22;4274;52.012;8.448;2024-02-04T06:13:46;8.50;99.90
8475;DHT22;4274;52.012;8.448;2024-02-04T06:16:11;8.50;99.90
8475;DHT22;4274;52.012;8.448;2024-02-04T06:18:38;8.50;99.90
8475;DHT22;4274;52.012;8.448;2024-02-04T06:21:05;8.50;99.90
8475;DHT22;4274;52.012;8.448;2024-02-04T06:23:30;8.50;99.90
8475;DHT22;4274;52.012;8.448;2024-02-04T06:25:56;8.40;99.90
8475;DHT22;4274;52.012;8.448;2024-02-04T06:28:22;8.40;99.90
8475;DHT22;4274;52.012;8.448;2024-02-04T06:30:48;8.50;99.90
8475;DHT22;4274;52.012;8.448;2024-02-04T06:33:14;8.50;99.90
8475;DHT22;4274;52.012;8.448;2024-02-04T06:35:40;8.50;99.90
8475;DHT22;4274;52.012;8.448;2024-02-04T06:38:05;8.50;99.90
8475;DHT22;4274;52.012;8.448;2024-02-04T06:40:31;8.50;99.90
8475;DHT22;4274;52.012;8.448;2024-02-04T06:42:57;8.50;99.90
8475;DHT22;4274;52.012;8.448;2024-02-04T06:45:22;8.50;99.90
8475;DHT22;4274;52.012;8.448;2024-02-04T06:47:48;8.50;99.90
8475;DHT22;4274;52.012;8.448;2024-02-04T06:50:13;8.50;99.90
8475;DHT22;4274;52.012;8.448;2024-02-04T06:52:42;8.50;99.90
8475;DHT22;4274;52.012;8.448;2024-02-04T06:55:09;8.50;99.90
8475;DHT22;4274;52.012;8.448;2024-02-04T06:57:35;8.50;99.90
8475;DHT22;4274;52.012;8.448;2024-02-04T07:00:00;8.50;99.90
8475;DHT22;4274;52.012;8.448;2024-02-04T07:02:26;8.50;99.90
8475;DHT22;4274;52.012;8.448;2024-02-04T07:04:53;8.50;99.90
8475;DHT22;4274;52.012;8.448;2024-02-04T07:07:18;8.60;99.90
8475;DHT22;4274;52.012;8.448;2024-02-04T07:09:44;8.60;99.90
8475;DHT22;4274;52.012;8.448;2024-02-04T07:12:10;8.60;99.90
8475;DHT22;4274;52.012;8.448;2024-02-04T07:14:36;8.60;99.90
8475;DHT22;4274;52.012;8.448;2024-02-04T07:17:01;8.60;99.90
8475;DHT22;4274;52.012;8.448;2024-02-04T07:19:27;8.50;99.90
8475;DHT22;4274;52.012;8.448;2024-02-04T07:21:52;8.50;99.90
8475;DHT22;4274;52.012;8.448;2024-02-04T07:24:18;8.50;99.90
8475;DHT22;4274;52.012;8.448;2024-02-04T07:26:45;8.40;99.90
8475;DHT22;4274;52.012;8.448;2024-02-04T07:29:12;8.40;99.90
8475;DHT22;4274;52.012;8.448;2024-02-04T07:31:37;8.30;99.90
8475;DHT22;4274;52.012;8.448;2024-02-04T07:34:03;8.30;99.90
8475;DHT22;4274;52.012;8.448;2024-02-04T07:36:29;8.20;99.90
8475;DHT22;4274;52.012;8.448;2024-02-04T07:38:54;8.20;99.90
8475;DHT22;4274;52.012;8.448;2024-02-04T07:41:20;8.20;99.90
8475;DHT22;4274;52.012;8.448;2024-02-04T07:43:45;8.10;99.90
8475;DHT22;4274;52.012;8.448;2024-02-04T07:46:13;8.10;99.90
8475;DHT22;4274;52.012;8.448;2024-02-04T07:48:39;8.10;99.90
8475;DHT22;4274;52.012;8.448;2024-02-04T07:51:05;8.20;99.90
8475;DHT22;4274;52.012;8.448;2024-02-04T07:53:31;8.20;99.90
8475;DHT22;4274;52.012;8.448;2024-02-04T07:55:57;8.20;99.90
8475;DHT22;4274;52.012;8.448;2024-02-04T07:58:23;8.20;99.90
8475;DHT22;4274;52.012;8.448;2024-02-04T08:00:48;8.20;99.90
8475;DHT22;4274;52.012;8.448;2024-02-04T08:03:14;8.20;99.90
8475;DHT22;4274;52.012;8.448;2024-02-04T08:05:39;8.10;99.90
8475;DHT22;4274;52.012;8.448;2024-02-04T08:08:05;8.10;99.90
8475;DHT22;4274;52.012;8.448;2024-02-04T08:10:31;8.10;99.90
8475;DHT22;4274;52.012;8.448;2024-02-04T08:12:56;8.10;99.90
8475;DHT22;4274;52.012;8.448;2024-02-04T08:15:22;8.10;99.90
8475;DHT22;4274;52.012;8.448;2024-02-04T08:17:48;8.10;99.90
8475;DHT22;4274;52.012;8.448;2024-02-04T08:20:14;8.10;99.90
8475;DHT22;4274;52.012;8.448;2024-02-04T08:22:39;8.10;99.90
8475;DHT22;4274;52.012;8.448;2024-02-04T08:25:05;8.00;99.90
8475;DHT22;4274;52.012;8.448;2024-02-04T08:27:31;8.10;99.90
8475;DHT22;4274;52.012;8.448;2024-02-04T08:29:57;8.00;99.90
8475;DHT22;4274;52.012;8.448;2024-02-04T08:32:22;8.00;99.90
8475;DHT22;4274;52.012;8.448;2024-02-04T08:34:48;8.00;99.90
8475;DHT22;4274;52.012;8.448;2024-02-04T08:37:13;7.90;99.90
8475;DHT22;4274;52.012;8.448;2024-02-04T08:39:39;7.90;99.90
8475;DHT22;4274;52.012;8.448;2024-02-04T08:42:05;7.90;99.90
8475;DHT22;4274;52.012;8.448;2024-02-04T08:44:31;7.90;99.90
8475;DHT22;4274;52.012;8.448;2024-02-04T08:46:56;8.00;99.90
8475;DHT22;4274;52.012;8.448;2024-02-04T08:49:22;8.10;99.90
8475;DHT22;4274;52.012;8.448;2024-02-04T08:51:48;8.10;99.90
8475;DHT22;4274;52.012;8.448;2024-02-04T08:54:13;8.20;99.90
8475;DHT22;4274;52.012;8.448;2024-02-04T08:56:40;8.20;99.90
8475;DHT22;4274;52.012;8.448;2024-02-04T08:59:05;8.20;99.90
8475;DHT22;4274;52.012;8.448;2024-02-04T09:01:31;8.30;99.90
8475;DHT22;4274;52.012;8.448;2024-02-04T09:03:57;8.30;99.90
8475;DHT22;4274;52.012;8.448;2024-02-04T09:06:22;8.30;99.90
8475;DHT22;4274;52.012;8.448;2024-02-04T09:08:48;8.30;99.90
8475;DHT22;4274;52.012;8.448;2024-02-04T09:11:14;8.30;99.90
8475;DHT22;4274;52.012;8.448;2024-02-04T09:13:44;8.40;99.90
8475;DHT22;4274;52.012;8.448;2024-02-04T09:16:10;8.30;99.90
8475;DHT22;4274;52.012;8.448;2024-02-04T09:18:36;8.30;99.90
8475;DHT22;4274;52.012;8.448;2024-02-04T09:21:02;8.30;99.90
8475;DHT22;4274;52.012;8.448;2024-02-04T09:23:28;8.30;99.90
8475;DHT22;4274;52.012;8.448;2024-02-04T09:25:53;8.40;99.90
8475;DHT22;4274;52.012;8.448;2024-02-04T09:28:19;8.40;99.90
8475;DHT22;4274;52.012;8.448;2024-02-04T09:30:44;8.50;99.90
8475;DHT22;4274;52.012;8.448;2024-02-04T09:33:10;8.60;99.90
8475;DHT22;4274;52.012;8.448;2024-02-04T09:35:35;8.60;99.90
8475;DHT22;4274;52.012;8.448;2024-02-04T09:38:01;8.60;99.90
8475;DHT22;4274;52.012;8.448;2024-02-04T09:40:26;8.70;99.90
8475;DHT22;4274;52.012;8.448;2024-02-04T09:42:52;8.70;99.90
8475;DHT22;4274;52.012;8.448;2024-02-04T09:45:19;8.70;99.90
8475;DHT22;4274;52.012;8.448;2024-02-04T09:47:45;8.70;99.90
8475;DHT22;4274;52.012;8.448;2024-02-04T09:50:11;8.70;99.90
8475;DHT22;4274;52.012;8.448;2024-02-04T09:52:40;8.70;99.90
8475;DHT22;4274;52.012;8.448;2024-02-04T09:55:10;8.60;99.90
8475;DHT22;4274;52.012;8.448;2024-02-04T09:57:38;8.60;99.90
8475;DHT22;4274;52.012;8.448;2024-02-04T10:00:04;8.60;99.90
8475;DHT22;4274;52.012;8.448;2024-02-04T10:02:32;8.60;99.90
8475;DHT22;4274;52.012;8.448;2024-02-04T10:04:57;8.60;99.90
8475;DHT22;4274;52.012;8.448;2024-02-04T10:07:23;8.60;99.90
8475;DHT22;4274;52.012;8.448;2024-02-04T10:09:50;8.60;99.90
8475;DHT22;4274;52.012;8.448;2024-02-04T10:12:16;8.70;99.90
8475;DHT22;4274;52.012;8.448;2024-02-04T10:14:42;8.70;99.90
8475;DHT22;4274;52.012;8.448;2024-02-04T10:17:07;8.70;99.90
8475;DHT22;4274;52.012;8.448;2024-02-04T10:19:33;8.70;99.90
8475;DHT22;4274;52.012;8.448;2024-02-04T10:22:00;8.70;99.90
8475;DHT22;4274;52.012;8.448;2024-02-04T10:24:26;8.70;99.90
8475;DHT22;4274;52.012;8.448;2024-02-04T10:26:53;8.70;99.90
8475;DHT22;4274;52.012;8.448;2024-02-04T10:29:18;8.70;99.90
8475;DHT22;4274;52.012;8.448;2024-02-04T10:31:44;8.80;99.90
8475;DHT22;4274;52.012;8.448;2024-02-04T10:34:10;8.90;99.90
8475;DHT22;4274;52.012;8.448;2024-02-04T10:36:35;8.90;99.90
8475;DHT22;4274;52.012;8.448;2024-02-04T10:39:01;9.00;99.90
8475;DHT22;4274;52.012;8.448;2024-02-04T10:41:29;8.90;99.90
8475;DHT22;4274;52.012;8.448;2024-02-04T10:43:58;9.00;99.90
8475;DHT22;4274;52.012;8.448;2024-02-04T10:46:30;9.00;99.90
8475;DHT22;4274;52.012;8.448;2024-02-04T10:48:59;9.00;99.90
8475;DHT22;4274;52.012;8.448;2024-02-04T10:51:26;8.90;99.90
8475;DHT22;4274;52.012;8.448;2024-02-04T10:53:54;9.00;99.90
8475;DHT22;4274;52.012;8.448;2024-02-04T10:58:52;8.90;99.90
8475;DHT22;4274;52.012;8.448;2024-02-04T11:01:19;9.10;99.90
8475;DHT22;4274;52.012;8.448;2024-02-04T11:03:45;9.20;99.90
8475;DHT22;4274;52.012;8.448;2024-02-04T11:06:12;9.30;99.90
8475;DHT22;4274;52.012;8.448;2024-02-04T11:08:39;9.40;99.90
8475;DHT22;4274;52.012;8.448;2024-02-04T11:11:04;9.50;99.90
8475;DHT22;4274;52.012;8.448;2024-02-04T11:13:31;9.60;99.90
8475;DHT22;4274;52.012;8.448;2024-02-04T11:16:04;9.70;99.90
8475;DHT22;4274;52.012;8.448;2024-02-04T11:21:34;9.80;99.90
8475;DHT22;4274;52.012;8.448;2024-02-04T11:26:54;9.60;99.90
8475;DHT22;4274;52.012;8.448;2024-02-04T11:29:21;9.40;99.90
8475;DHT22;4274;52.012;8.448;2024-02-04T11:31:47;9.30;99.90
8475;DHT22;4274;52.012;8.448;2024-02-04T11:34:13;9.30;99.90
8475;DHT22;4274;52.012;8.448;2024-02-04T11:36:39;9.20;99.90
8475;DHT22;4274;52.012;8.448;2024-02-04T11:39:12;9.20;99.90
8475;DHT22;4274;52.012;8.448;2024-02-04T11:41:49;9.20;99.90
8475;DHT22;4274;52.012;8.448;2024-02-04T11:44:22;9.20;99.90
8475;DHT22;4274;52.012;8.448;2024-02-04T11:46:48;9.20;99.90
8475;DHT22;4274;52.012;8.448;2024-02-04T11:49:15;9.20;99.90
8475;DHT22;4274;52.012;8.448;2024-02-04T11:51:45;9.20;99.90
8475;DHT22;4274;52.012;8.448;2024-02-04T11:54:11;9.20;99.90
8475;DHT22;4274;52.012;8.448;2024-02-04T11:56:39;9.20;99.90
8475;DHT22;4274;52.012;8.448;2024-02-04T11:59:07;9.10;99.90
8475;DHT22;4274;52.012;8.448;2024-02-04T12:01:33;9.10;99.90
8475;DHT22;4274;52.012;8.448;2024-02-04T12:04:13;9.10;99.90
8475;DHT22;4274;52.012;8.448;2024-02-04T12:06:40;9.10;99.90
8475;DHT22;4274;52.012;8.448;2024-02-04T12:09:10;9.10;99.90
8475;DHT22;4274;52.012;8.448;2024-02-04T12:11:37;9.00;99.90
8475;DHT22;4274;52.012;8.448;2024-02-04T12:14:07;9.00;99.90
8475;DHT22;4274;52.012;8.448;2024-02-04T12:16:33;9.00;99.90
8475;DHT22;4274;52.012;8.448;2024-02-04T12:19:01;9.00;99.90
8475;DHT22;4274;52.012;8.448;2024-02-04T12:21:29;8.90;99.90
8475;DHT22;4274;52.012;8.448;2024-02-04T12:23:54;9.00;99.90
8475;DHT22;4274;52.012;8.448;2024-02-04T12:26:21;9.10;99.90
8475;DHT22;4274;52.012;8.448;2024-02-04T12:28:48;9.10;99.90
8475;DHT22;4274;52.012;8.448;2024-02-04T12:31:21;9.10;99.90
8475;DHT22;4274;52.012;8.448;2024-02-04T12:33:57;9.10;99.90
8475;DHT22;4274;52.012;8.448;2024-02-04T12:36:32;9.10;99.90
8475;DHT22;4274;52.012;8.448;2024-02-04T12:39:00;9.10;99.90
8475;DHT22;4274;52.012;8.448;2024-02-04T12:41:27;9.00;99.90
8475;DHT22;4274;52.012;8.448;2024-02-04T12:43:57;9.00;99.90
8475;DHT22;4274;52.012;8.448;2024-02-04T12:46:23;9.00;99.90
8475;DHT22;4274;52.012;8.448;2024-02-04T12:48:53;9.00;99.90
8475;DHT22;4274;52.012;8.448;2024-02-04T12:51:32;9.00;99.90
8475;DHT22;4274;52.012;8.448;2024-02-04T12:54:11;9.00;99.90
8475;DHT22;4274;52.012;8.448;2024-02-04T12:56:54;9.00;99.90
8475;DHT22;4274;52.012;8.448;2024-02-04T12:59:30;9.00;99.90
8475;DHT22;4274;52.012;8.448;2024-02-04T13:01:58;9.00;99.90
8475;DHT22;4274;52.012;8.448;2024-02-04T13:04:24;9.10;99.90
8475;DHT22;4274;52.012;8.448;2024-02-04T13:06:50;9.00;99.90
8475;DHT22;4274;52.012;8.448;2024-02-04T13:09:17;9.10;99.90
8475;DHT22;4274;52.012;8.448;2024-02-04T13:11:43;9.10;99.90
8475;DHT22;4274;52.012;8.448;2024-02-04T13:14:09;9.00;99.90
8475;DHT22;4274;52.012;8.448;2024-02-04T13:16:34;9.00;99.90
8475;DHT22;4274;52.012;8.448;2024-02-04T13:19:02;9.00;99.90
8475;DHT22;4274;52.012;8.448;2024-02-04T13:21:28;9.00;99.90
8475;DHT22;4274;52.012;8.448;2024-02-04T13:23:54;9.00;99.90
8475;DHT22;4274;52.012;8.448;2024-02-04T13:26:20;9.10;99.90
8475;DHT22;4274;52.012;8.448;2024-02-04T13:28:46;9.10;99.90
8475;DHT22;4274;52.012;8.448;2024-02-04T13:31:12;9.20;99.90
8475;DHT22;4274;52.012;8.448;2024-02-04T13:33:40;9.20;99.90
8475;DHT22;4274;52.012;8.448;2024-02-04T13:36:07;9.20;99.90
8475;DHT22;4274;52.012;8.448;2024-02-04T13:38:34;9.30;99.90
8475;DHT22;4274;52.012;8.448;2024-02-04T13:40:59;9.30;99.90
8475;DHT22;4274;52.012;8.448;2024-02-04T13:43:25;9.30;99.90
8475;DHT22;4274;52.012;8.448;2024-02-04T13:45:52;9.30;99.90
8475;DHT22;4274;52.012;8.448;2024-02-04T13:48:17;9.30;99.90
8475;DHT22;4274;52.012;8.448;2024-02-04T13:50:44;9.30;99.90
8475;DHT22;4274;52.012;8.448;2024-02-04T13:53:11;9.30;99.90
8475;DHT22;4274;52.012;8.448;2024-02-04T13:55:36;9.30;99.90
8475;DHT22;4274;52.012;8.448;2024-02-04T13:58:03;9.30;99.90
8475;DHT22;4274;52.012;8.448;2024-02-04T14:00:28;9.20;99.90
8475;DHT22;4274;52.012;8.448;2024-02-04T14:02:54;9.20;99.90
8475;DHT22;4274;52.012;8.448;2024-02-04T14:05:20;9.20;99.90
8475;DHT22;4274;52.012;8.448;2024-02-04T14:07:45;9.10;99.90
8475;DHT22;4274;52.012;8.448;2024-02-04T14:10:11;9.00;99.90
8475;DHT22;4274;52.012;8.448;2024-02-04T14:12:38;8.90;99.90
8475;DHT22;4274;52.012;8.448;2024-02-04T14:15:05;8.90;99.90
8475;DHT22;4274;52.012;8.448;2024-02-04T14:17:32;8.80;99.90
8475;DHT22;4274;52.012;8.448;2024-02-04T14:19:58;8.80;99.90
8475;DHT22;4274;52.012;8.448;2024-02-04T14:22:24;8.80;99.90
8475;DHT22;4274;52.012;8.448;2024-02-04T14:24:50;8.70;99.90
8475;DHT22;4274;52.012;8.448;2024-02-04T14:27:15;8.70;99.90
8475;DHT22;4274;52.012;8.448;2024-02-04T14:29:41;8.70;99.90
8475;DHT22;4274;52.012;8.448;2024-02-04T14:32:07;8.70;99.90
8475;DHT22;4274;52.012;8.448;2024-02-04T14:34:34;8.70;99.90
8475;DHT22;4274;52.012;8.448;2024-02-04T14:36:59;8.70;99.90
8475;DHT22;4274;52.012;8.448;2024-02-04T14:39:25;8.70;99.90
8475;DHT22;4274;52.012;8.448;2024-02-04T14:41:51;8.70;99.90
8475;DHT22;4274;52.012;8.448;2024-02-04T14:44:19;8.60;99.90
8475;DHT22;4274;52.012;8.448;2024-02-04T14:46:45;8.70;99.90
8475;DHT22;4274;52.012;8.448;2024-02-04T14:49:11;8.70;99.90
8475;DHT22;4274;52.012;8.448;2024-02-04T14:51:40;8.70;99.90
8475;DHT22;4274;52.012;8.448;2024-02-04T14:54:07;8.70;99.90
8475;DHT22;4274;52.012;8.448;2024-02-04T14:56:41;8.70;99.90
8475;DHT22;4274;52.012;8.448;2024-02-04T14:59:09;8.70;99.90
8475;DHT22;4274;52.012;8.448;2024-02-04T15:01:36;8.70;99.90
8475;DHT22;4274;52.012;8.448;2024-02-04T15:04:01;8.70;99.90
8475;DHT22;4274;52.012;8.448;2024-02-04T15:06:27;8.70;99.90
8475;DHT22;4274;52.012;8.448;2024-02-04T15:08:55;8.70;99.90
8475;DHT22;4274;52.012;8.448;2024-02-04T15:11:21;8.70;99.90
8475;DHT22;4274;52.012;8.448;2024-02-04T15:13:47;8.70;99.90
8475;DHT22;4274;52.012;8.448;2024-02-04T15:16:13;8.70;99.90
8475;DHT22;4274;52.012;8.448;2024-02-04T15:18:39;8.70;99.90
8475;DHT22;4274;52.012;8.448;2024-02-04T15:21:05;8.70;99.90
8475;DHT22;4274;52.012;8.448;2024-02-04T15:23:31;8.70;99.90
8475;DHT22;4274;52.012;8.448;2024-02-04T15:25:57;8.70;99.90
8475;DHT22;4274;52.012;8.448;2024-02-04T15:28:23;8.70;99.90
8475;DHT22;4274;52.012;8.448;2024-02-04T15:30:50;8.70;99.90
8475;DHT22;4274;52.012;8.448;2024-02-04T15:33:16;8.70;99.90
8475;DHT22;4274;52.012;8.448;2024-02-04T15:35:42;8.70;99.90
8475;DHT22;4274;52.012;8.448;2024-02-04T15:38:07;8.70;99.90
8475;DHT22;4274;52.012;8.448;2024-02-04T15:40:33;8.70;99.90
8475;DHT22;4274;52.012;8.448;2024-02-04T15:42:58;8.60;99.90
8475;DHT22;4274;52.012;8.448;2024-02-04T15:45:26;8.60;99.90
8475;DHT22;4274;52.012;8.448;2024-02-04T15:47:52;8.60;99.90
8475;DHT22;4274;52.012;8.448;2024-02-04T15:50:19;8.60;99.90
8475;DHT22;4274;52.012;8.448;2024-02-04T15:52:49;8.60;99.90
8475;DHT22;4274;52.012;8.448;2024-02-04T15:55:18;8.60;99.90
8475;DHT22;4274;52.012;8.448;2024-02-04T15:57:48;8.60;99.90
8475;DHT22;4274;52.012;8.448;2024-02-04T16:00:15;8.60;99.90
8475;DHT22;4274;52.012;8.448;2024-02-04T16:02:48;8.60;99.90
8475;DHT22;4274;52.012;8.448;2024-02-04T16:05:15;8.60;99.90
8475;DHT22;4274;52.012;8.448;2024-02-04T16:07:42;8.60;99.90
8475;DHT22;4274;52.012;8.448;2024-02-04T16:10:08;8.60;99.90
8475;DHT22;4274;52.012;8.448;2024-02-04T16:12:35;8.60;99.90
8475;DHT22;4274;52.012;8.448;2024-02-04T16:15:02;8.60;99.90
8475;DHT22;4274;52.012;8.448;2024-02-04T16:17:31;8.60;99.90
8475;DHT22;4274;52.012;8.448;2024-02-04T16:19:57;8.60;99.90
8475;DHT22;4274;52.012;8.448;2024-02-04T16:22:23;8.60;99.90
8475;DHT22;4274;52.012;8.448;2024-02-04T16:24:49;8.60;99.90